Time;durP1;ratioP1;P1;durP2;ratioP2;P2;SDS_P1;SDS_P2;PMS_P1;PMS_P2;Temp;Humidity;BMP_temperature;BMP_pressure;BME280_temperature;BME280_humidity;BME280_pressure;Samples;Min_cycle;Max_cycle;Signal;HPM_P1;HPM_P2
2021/09/27 00:00:52;;;;;;;12.88;9.40;;;;;;;17.42;78.89;100464.16;8561995;33;20462;-74
2021/09/27 00:05:57;;;;;;;12.75;9.15;;;;;;;17.47;78.76;100459.94;8566007;33;20184;-75
2021/09/27 00:11:05;;;;;;;14.75;9.75;;;;;;;17.40;78.49;100467.03;8565517;33;21052;-74
2021/09/27 00:16:10;;;;;;;15.52;9.98;;;;;;;17.29;78.08;100467.34;8565496;33;20243;-74
2021/09/27 00:21:19;;;;;;;16.02;10.25;;;;;;;17.27;77.98;100469.38;8564337;33;20400;-74
2021/09/27 00:26:23;;;;;;;12.80;9.73;;;;;;;17.25;77.54;100476.81;8563658;33;20504;-75
2021/09/27 00:31:26;;;;;;;15.90;9.43;;;;;;;17.29;77.18;100469.22;8564606;33;20545;-75
2021/09/27 00:36:31;;;;;;;13.18;9.77;;;;;;;17.34;77.14;100458.72;8556053;33;21871;-75
2021/09/27 00:41:35;;;;;;;15.23;9.90;;;;;;;17.34;76.97;100472.28;8551144;33;20438;-75
2021/09/27 00:46:38;;;;;;;13.13;10.20;;;;;;;17.28;76.88;100467.50;8551144;33;21048;-75
2021/09/27 00:51:45;;;;;;;16.33;10.63;;;;;;;17.32;76.57;100466.16;8550787;33;20405;-75
2021/09/27 00:57:03;;;;;;;16.40;10.30;;;;;;;17.33;76.29;100460.56;8546675;33;20419;-76
2021/09/27 01:02:06;;;;;;;12.20;10.00;;;;;;;17.36;76.32;100443.97;8547560;33;21438;-76
2021/09/27 01:07:22;;;;;;;15.45;10.57;;;;;;;17.39;76.53;100451.78;8548703;33;20420;-76
2021/09/27 01:12:46;;;;;;;15.00;10.48;;;;;;;17.40;76.13;100449.91;8548388;33;20483;-75
2021/09/27 01:18:07;;;;;;;15.23;10.25;;;;;;;17.42;76.32;100446.00;8551653;33;20171;-76
2021/09/27 01:24:01;;;;;;;15.18;10.45;;;;;;;17.46;75.65;100451.94;8500957;33;20445;-75
2021/09/27 01:29:24;;;;;;;15.93;9.95;;;;;;;17.46;75.92;100447.34;8493600;33;20168;-76
2021/09/27 01:34:34;;;;;;;16.38;10.80;;;;;;;17.42;76.01;100439.72;8489435;33;20184;-76
2021/09/27 01:39:44;;;;;;;13.20;9.57;;;;;;;17.38;76.70;100447.34;8487628;33;20429;-76
2021/09/27 01:44:57;;;;;;;13.10;9.93;;;;;;;17.41;76.51;100435.28;8482667;33;21116;-76
2021/09/27 01:50:08;;;;;;;13.40;10.25;;;;;;;17.33;75.39;100433.41;8483028;33;20185;-76
2021/09/27 01:55:18;;;;;;;16.40;10.93;;;;;;;17.23;75.59;100441.72;8482037;33;20493;-76
2021/09/27 02:00:25;;;;;;;16.92;11.57;;;;;;;17.25;75.60;100453.28;8483382;33;20148;-76
2021/09/27 02:05:38;;;;;;;16.80;11.40;;;;;;;17.21;75.25;100451.88;8483098;33;20424;-76
2021/09/27 02:10:51;;;;;;;17.88;11.35;;;;;;;17.21;75.67;100460.03;8484980;33;20419;-75
2021/09/27 02:16:03;;;;;;;14.95;10.50;;;;;;;17.26;75.70;100454.13;8499492;33;20603;-75
2021/09/27 02:21:13;;;;;;;16.33;11.10;;;;;;;17.31;75.58;100442.75;8502743;33;20327;-76
2021/09/27 02:26:17;;;;;;;18.02;11.02;;;;;;;17.18;75.32;100440.53;8503591;33;20449;-76
2021/09/27 02:31:27;;;;;;;16.70;11.82;;;;;;;17.01;75.71;100448.59;8502918;33;20145;-75
2021/09/27 02:36:38;;;;;;;17.23;12.48;;;;;;;17.00;75.70;100456.88;8494366;33;20475;-75
2021/09/27 02:41:49;;;;;;;16.58;12.02;;;;;;;17.03;76.08;100462.84;8487519;33;20182;-76
2021/09/27 02:46:56;;;;;;;19.13;12.45;;;;;;;17.09;76.15;100463.22;8487388;33;20188;-76
2021/09/27 02:52:04;;;;;;;16.65;11.93;;;;;;;17.16;75.87;100459.69;8486858;33;20137;-76
2021/09/27 02:57:56;;;;;;;17.55;12.20;;;;;;;17.17;75.49;100460.56;8485749;33;20203;-76
2021/09/27 03:03:13;;;;;;;19.88;12.18;;;;;;;17.12;74.96;100452.03;8485400;33;20491;-75
2021/09/27 03:08:45;;;;;;;19.38;13.38;;;;;;;17.00;75.31;100448.75;8488202;33;21463;-75
2021/09/27 03:14:07;;;;;;;16.00;12.02;;;;;;;16.92;75.45;100440.56;8498561;33;20203;-75
2021/09/27 03:19:30;;;;;;;20.23;12.70;;;;;;;16.81;75.82;100436.28;8502082;33;20476;-75
2021/09/27 03:25:07;;;;;;;21.88;13.75;;;;;;;16.72;76.39;100443.56;8507621;33;20414;-75
2021/09/27 03:30:17;;;;;;;21.23;13.27;;;;;;;16.84;76.15;100444.13;8507020;33;20202;-76
2021/09/27 03:35:31;;;;;;;16.88;12.13;;;;;;;16.91;75.80;100441.59;8508282;33;21899;-76
2021/09/27 03:40:51;;;;;;;19.15;12.32;;;;;;;16.91;75.76;100436.16;8508685;33;20245;-76
2021/09/27 03:46:11;;;;;;;16.13;12.23;;;;;;;16.83;75.95;100441.56;8503583;33;20406;-76
2021/09/27 03:51:20;;;;;;;19.85;13.88;;;;;;;16.71;75.69;100441.03;8506538;33;20439;-75
2021/09/27 03:56:31;;;;;;;16.77;12.00;;;;;;;16.69;76.06;100434.91;8504906;33;20125;-76
2021/09/27 04:01:44;;;;;;;19.30;12.77;;;;;;;16.64;75.92;100434.53;8500474;33;20194;-75
2021/09/27 04:06:59;;;;;;;22.55;13.00;;;;;;;16.54;76.34;100430.09;8492268;33;21967;-75
2021/09/27 04:12:19;;;;;;;21.10;13.80;;;;;;;16.52;76.74;100426.69;8498511;33;20460;-75
2021/09/27 04:17:35;;;;;;;19.73;13.15;;;;;;;16.45;76.27;100414.78;8495302;33;21474;-75
2021/09/27 04:22:43;;;;;;;20.45;13.40;;;;;;;16.40;76.30;100402.72;8490837;33;20497;-76
2021/09/27 04:28:06;;;;;;;19.45;13.00;;;;;;;16.29;76.60;100402.03;8488527;33;20217;-75
2021/09/27 04:33:27;;;;;;;19.38;12.25;;;;;;;16.06;77.12;100404.38;8489090;33;20506;-75
2021/09/27 04:38:32;;;;;;;20.67;12.23;;;;;;;15.95;77.88;100404.63;8491842;33;20411;-75
2021/09/27 04:43:50;;;;;;;18.05;12.63;;;;;;;15.87;78.26;100405.44;8490418;33;20673;-75
2021/09/27 04:49:05;;;;;;;17.73;11.25;;;;;;;15.82;78.30;100406.91;8500824;33;20692;-75
2021/09/27 04:54:37;;;;;;;22.10;13.57;;;;;;;15.83;78.45;100401.34;8504140;33;20861;-76
2021/09/27 05:00:01;;;;;;;21.50;13.30;;;;;;;15.80;78.63;100406.25;8499424;33;20439;-75
2021/09/27 05:05:09;;;;;;;22.17;13.30;;;;;;;15.76;77.58;100397.56;8490176;33;20263;-75
2021/09/27 05:10:51;;;;;;;19.48;13.27;;;;;;;15.78;78.12;100398.25;8489719;33;20618;-75
2021/09/27 05:16:21;;;;;;;19.55;12.90;;;;;;;15.83;77.88;100395.09;8484393;33;20804;-75
2021/09/27 05:22:09;;;;;;;20.20;12.75;;;;;;;15.80;77.76;100396.25;8488537;33;20572;-75
2021/09/27 05:27:40;;;;;;;18.90;12.23;;;;;;;15.71;77.64;100391.75;8488283;33;20343;-75
2021/09/27 05:32:53;;;;;;;19.00;12.32;;;;;;;15.69;77.45;100402.78;8488406;33;20505;-75
2021/09/27 05:38:09;;;;;;;19.95;12.57;;;;;;;15.64;77.47;100396.13;8487410;33;20466;-75
2021/09/27 05:43:40;;;;;;;16.88;12.15;;;;;;;15.57;77.49;100398.59;8487777;33;20211;-75
2021/09/27 05:48:51;;;;;;;20.92;12.38;;;;;;;15.57;77.80;100404.00;8485472;33;20475;-75
2021/09/27 05:54:04;;;;;;;18.80;12.73;;;;;;;15.52;77.36;100395.50;8486926;33;20531;-75
2021/09/27 05:59:14;;;;;;;19.95;12.55;;;;;;;15.51;77.35;100399.22;8496649;33;20133;-76
2021/09/27 06:04:27;;;;;;;20.95;13.43;;;;;;;15.61;77.36;100402.72;8540122;33;20421;-74
2021/09/27 06:09:45;;;;;;;20.83;12.38;;;;;;;15.78;77.04;100394.72;8533595;33;20140;-74
2021/09/27 06:14:50;;;;;;;17.58;11.77;;;;;;;16.09;76.70;100395.06;8535843;33;20505;-74
2021/09/27 06:20:08;;;;;;;22.00;12.88;;;;;;;16.21;75.21;100396.53;8538679;33;20164;-74
2021/09/27 06:25:20;;;;;;;20.42;12.38;;;;;;;16.41;74.42;100382.75;8541745;33;20441;-73
2021/09/27 06:30:31;;;;;;;19.08;12.38;;;;;;;16.54;74.00;100396.72;8544218;33;20972;-73
2021/09/27 06:35:39;;;;;;;20.90;12.15;;;;;;;16.70;73.37;100387.78;8537545;33;20155;-74
2021/09/27 06:40:45;;;;;;;20.95;12.35;;;;;;;16.93;72.46;100396.16;8535531;33;20186;-73
2021/09/27 06:45:50;;;;;;;16.58;12.05;;;;;;;17.20;71.56;100389.66;8540382;33;20399;-74
2021/09/27 06:50:57;;;;;;;17.48;10.35;;;;;;;17.41;70.81;100378.28;8552624;33;20939;-73
2021/09/27 06:56:01;;;;;;;15.05;10.73;;;;;;;17.77;69.26;100386.06;8559710;33;20181;-74
2021/09/27 07:01:05;;;;;;;16.30;11.15;;;;;;;17.83;69.39;100383.53;8559975;33;20622;-74
2021/09/27 07:06:09;;;;;;;14.30;10.32;;;;;;;17.89;68.59;100379.28;8559765;33;20155;-74
2021/09/27 07:11:14;;;;;;;14.93;10.35;;;;;;;17.18;70.83;100372.66;8560724;33;20455;-73
2021/09/27 07:16:18;;;;;;;14.32;9.70;;;;;;;16.94;71.72;100370.72;8563057;33;20184;-73
2021/09/27 07:21:43;;;;;;;15.00;9.98;;;;;;;16.97;71.33;100373.94;8565361;33;20407;-74
2021/09/27 07:26:46;;;;;;;14.60;9.82;;;;;;;17.08;70.85;100380.91;8561100;33;20163;-74
2021/09/27 07:31:49;;;;;;;12.10;8.85;;;;;;;17.31;70.42;100383.88;8555589;33;20171;-74
2021/09/27 07:36:54;;;;;;;15.20;9.43;;;;;;;17.71;68.87;100376.72;8562629;33;20198;-74
2021/09/27 07:41:57;;;;;;;13.35;9.13;;;;;;;17.70;68.12;100377.78;8549789;33;20194;-74
2021/09/27 07:47:01;;;;;;;14.75;9.75;;;;;;;18.06;67.17;100380.13;8549035;33;20144;-74
2021/09/27 07:52:07;;;;;;;11.75;8.52;;;;;;;17.91;67.18;100390.84;8551274;33;20223;-74
2021/09/27 07:57:11;;;;;;;12.05;8.38;;;;;;;18.39;65.87;100378.16;8547744;33;20461;-74
2021/09/27 08:02:18;;;;;;;13.32;7.55;;;;;;;18.69;64.22;100368.31;8549438;33;20209;-75
2021/09/27 08:07:23;;;;;;;10.38;7.43;;;;;;;18.58;65.11;100366.00;8549681;33;21032;-74
2021/09/27 08:12:26;;;;;;;9.70;7.72;;;;;;;18.46;65.36;100368.28;8548594;33;20695;-74
2021/09/27 08:17:29;;;;;;;10.70;7.65;;;;;;;18.18;66.22;100367.84;8548019;33;20198;-74
2021/09/27 08:22:33;;;;;;;11.68;7.70;;;;;;;18.01;65.88;100364.31;8549723;33;20136;-74
2021/09/27 08:27:37;;;;;;;10.55;7.82;;;;;;;;;;8548282;33;20511;-75
2021/09/27 08:32:40;;;;;;;9.82;6.72;;;;;;;18.45;64.74;100354.84;8548498;33;20191;-74
2021/09/27 08:37:45;;;;;;;11.35;7.05;;;;;;;19.05;63.74;100361.53;8563224;33;20145;-74
2021/09/27 08:42:49;;;;;;;8.88;6.07;;;;;;;19.15;62.69;100362.13;8562131;33;20625;-74
2021/09/27 08:48:01;;;;;;;7.68;6.68;;;;;;;18.93;63.49;100371.97;8562596;33;20509;-74
2021/09/27 08:53:09;;;;;;;9.10;6.28;;;;;;;19.38;63.07;100375.75;8561601;33;20469;-74
2021/09/27 08:58:22;;;;;;;9.05;6.32;;;;;;;19.22;62.33;100376.69;8553050;33;20469;-74
2021/09/27 09:03:30;;;;;;;8.00;6.43;;;;;;;19.56;61.79;100370.03;8553192;33;20182;-74
2021/09/27 09:08:44;;;;;;;8.57;6.40;;;;;;;19.88;59.86;100363.41;8548424;33;20565;-74
2021/09/27 09:13:53;;;;;;;8.63;6.40;;;;;;;19.38;61.97;100382.03;8544729;33;20187;-74
2021/09/27 09:19:02;;;;;;;7.22;6.10;;;;;;;19.40;62.77;100370.97;8543386;33;21053;-73
2021/09/27 09:24:14;;;;;;;9.95;6.32;;;;;;;19.75;61.07;100371.38;8528224;33;20533;-73
2021/09/27 09:29:21;;;;;;;9.27;5.97;;;;;;;20.89;58.91;100369.19;8510884;33;20180;-73
2021/09/27 09:34:34;;;;;;;9.15;6.28;;;;;;;20.44;57.81;100372.00;8540569;33;20428;-74
2021/09/27 09:39:54;;;;;;;7.95;6.47;;;;;;;19.80;60.13;100368.94;8545013;33;20422;-73
2021/09/27 09:44:57;;;;;;;11.05;7.03;;;;;;;19.28;61.74;100359.66;8541525;33;21445;-74
2021/09/27 09:50:06;;;;;;;8.35;6.40;;;;;;;19.47;61.28;100363.75;8545530;33;20256;-73
2021/09/27 09:55:21;;;;;;;9.30;6.75;;;;;;;20.24;59.99;100347.16;8523591;33;20494;-73
2021/09/27 10:00:41;;;;;;;10.63;7.22;;;;;;;21.17;55.96;100342.88;8515047;33;20764;-74
2021/09/27 10:05:53;;;;;;;13.35;7.25;;;;;;;21.30;56.48;100333.09;8518482;33;20611;-74
2021/09/27 10:11:01;;;;;;;9.15;6.60;;;;;;;21.84;53.25;100330.63;8546793;33;20441;-74
2021/09/27 10:16:08;;;;;;;9.43;6.85;;;;;;;21.69;54.06;100332.59;8552819;33;21204;-74
2021/09/27 10:21:33;;;;;;;9.30;6.75;;;;;;;22.81;52.25;100331.56;8543320;33;20172;-74
2021/09/27 10:26:41;;;;;;;7.63;6.70;;;;;;;22.86;51.07;100322.72;8541299;33;20633;-74
2021/09/27 10:31:56;;;;;;;9.63;6.40;;;;;;;21.54;53.65;100321.75;8541353;33;21003;-74
2021/09/27 10:37:09;;;;;;;8.90;6.72;;;;;;;22.33;52.47;100315.16;8539437;33;20422;-74
2021/09/27 10:42:20;;;;;;;8.88;6.05;;;;;;;21.43;53.89;100335.97;8537511;33;20421;-73
2021/09/27 10:47:28;;;;;;;8.77;6.65;;;;;;;21.03;55.11;100319.16;8537999;33;20135;-74
2021/09/27 10:52:43;;;;;;;8.93;6.88;;;;;;;21.09;55.56;100323.88;8543274;33;20203;-74
2021/09/27 10:57:57;;;;;;;7.63;6.40;;;;;;;21.05;54.79;100319.84;8542646;33;20719;-74
2021/09/27 11:03:09;;;;;;;7.18;5.80;;;;;;;22.18;52.70;100312.53;8545084;33;20199;-77
2021/09/27 11:08:16;;;;;;;10.13;6.50;;;;;;;21.66;53.77;100303.75;8547079;33;21324;-74
2021/09/27 11:13:39;;;;;;;9.60;7.00;;;;;;;22.05;52.50;100299.66;8545534;33;20175;-74
2021/09/27 11:18:55;;;;;;;11.35;6.50;;;;;;;23.07;49.95;100308.03;8545257;33;20310;-74
2021/09/27 11:24:23;;;;;;;7.93;6.82;;;;;;;23.90;48.42;100313.97;8544413;33;20628;-74
2021/09/27 11:29:49;;;;;;;7.30;5.97;;;;;;;25.15;46.40;100295.28;8544291;33;20186;-74
2021/09/27 11:35:01;;;;;;;6.55;5.55;;;;;;;25.35;45.48;100284.13;8544301;33;20282;-74
2021/09/27 11:40:32;;;;;;;8.60;6.70;;;;;;;25.01;45.10;100287.31;8540520;33;21038;-75
2021/09/27 11:45:51;;;;;;;7.75;6.20;;;;;;;23.76;47.93;100285.72;8531506;33;20420;-74
2021/09/27 11:51:05;;;;;;;8.45;6.10;;;;;;;24.71;45.33;100296.16;8533970;33;20470;-74
2021/09/27 11:56:14;;;;;;;9.13;6.53;;;;;;;25.27;44.52;100287.16;8533466;33;20229;-74
2021/09/27 12:01:36;;;;;;;8.38;6.43;;;;;;;25.38;43.93;100277.34;8534724;33;21498;-73
2021/09/27 12:06:44;;;;;;;8.43;5.60;;;;;;;25.83;42.71;100275.22;8541124;33;20449;-74
2021/09/27 12:11:51;;;;;;;7.32;5.72;;;;;;;24.89;45.31;100281.69;8544151;33;21191;-74
2021/09/27 12:17:02;;;;;;;9.40;5.63;;;;;;;23.96;47.12;100282.09;8540347;33;20920;-74
2021/09/27 12:22:11;;;;;;;9.52;6.03;;;;;;;23.16;48.37;100268.44;8539613;33;20449;-74
2021/09/27 12:27:18;;;;;;;6.32;5.65;;;;;;;23.09;49.54;100275.78;8540775;33;20278;-74
2021/09/27 12:32:34;;;;;;;9.70;6.05;;;;;;;22.06;51.02;100268.50;8542694;33;20439;-74
2021/09/27 12:37:43;;;;;;;6.50;5.45;;;;;;;22.52;50.66;100264.31;8542837;33;20426;-74
2021/09/27 12:42:50;;;;;;;7.78;5.53;;;;;;;23.12;49.31;100259.81;8542837;33;20710;-74
2021/09/27 12:47:56;;;;;;;5.70;4.85;;;;;;;22.42;50.59;100240.03;8538446;33;20197;-74
2021/09/27 12:53:03;;;;;;;6.18;4.85;;;;;;;21.67;52.75;100248.06;8538436;33;20278;-74
2021/09/27 12:58:20;;;;;;;5.70;4.80;;;;;;;21.25;54.21;100249.00;8542448;33;20720;-74
2021/09/27 13:03:30;;;;;;;6.00;4.57;;;;;;;21.48;53.67;100256.13;8538371;33;20950;-74
2021/09/27 13:08:45;;;;;;;5.53;3.83;;;;;;;21.33;52.82;100265.25;8544890;33;20163;-74
2021/09/27 13:14:05;;;;;;;5.95;4.30;;;;;;;20.58;54.88;100265.78;8548167;33;20474;-73
2021/09/27 13:19:12;;;;;;;4.50;3.80;;;;;;;20.89;54.09;100246.34;8541500;33;20169;-74
2021/09/27 13:24:23;;;;;;;4.90;3.75;;;;;;;21.00;54.37;100246.66;8537069;33;21907;-74
2021/09/27 13:29:35;;;;;;;5.18;3.22;;;;;;;20.85;54.45;100258.72;8536407;33;20136;-73
2021/09/27 13:34:49;;;;;;;6.20;3.63;;;;;;;20.74;54.55;100260.06;8539688;33;20737;-74
2021/09/27 13:39:54;;;;;;;3.25;2.95;;;;;;;20.54;54.99;100243.47;8543598;33;20147;-73
2021/09/27 13:44:57;;;;;;;6.53;3.20;;;;;;;20.90;54.86;100243.44;8547150;33;21845;-74
2021/09/27 13:50:01;;;;;;;5.25;3.65;;;;;;;20.83;54.94;100250.72;8544857;33;20202;-74
2021/09/27 13:55:06;;;;;;;4.03;3.13;;;;;;;21.41;53.23;100245.97;8546454;33;20460;-73
2021/09/27 14:00:12;;;;;;;4.32;3.20;;;;;;;21.43;53.90;100254.00;8546757;33;20410;-73
2021/09/27 14:05:17;;;;;;;3.55;3.25;;;;;;;21.18;54.14;100253.59;8544477;33;20416;-73
2021/09/27 14:10:21;;;;;;;5.30;3.15;;;;;;;21.29;54.39;100257.66;8541806;33;20424;-74
2021/09/27 14:15:44;;;;;;;5.63;3.17;;;;;;;21.00;55.42;100254.84;8540396;33;20404;-73
2021/09/27 14:20:49;;;;;;;4.93;2.97;;;;;;;20.54;55.98;100260.72;8540151;33;20156;-73
2021/09/27 14:25:52;;;;;;;4.15;3.10;;;;;;;20.60;56.35;100260.94;8544062;33;20282;-74
2021/09/27 14:30:56;;;;;;;4.55;3.17;;;;;;;20.46;56.52;100273.59;8544854;33;20251;-73
2021/09/27 14:36:01;;;;;;;3.97;3.00;;;;;;;20.48;56.11;100271.53;8544401;33;21028;-74
2021/09/27 14:41:05;;;;;;;7.28;2.90;;;;;;;20.24;56.56;100269.94;8545232;33;21225;-74
2021/09/27 14:46:08;;;;;;;4.55;3.53;;;;;;;20.21;56.84;100267.59;8540664;33;20201;-74
2021/09/27 14:51:13;;;;;;;3.55;3.13;;;;;;;20.23;56.80;100257.34;8539147;33;20433;-74
2021/09/27 14:56:16;;;;;;;5.97;2.90;;;;;;;20.18;57.04;100265.25;8540421;33;21173;-74
2021/09/27 15:01:19;;;;;;;8.32;2.67;;;;;;;19.88;57.61;100265.28;8543990;33;20463;-74
2021/09/27 15:06:30;;;;;;;3.50;2.92;;;;;;;19.83;57.85;100270.47;8544399;33;20129;-75
2021/09/27 15:11:33;;;;;;;3.50;3.15;;;;;;;19.62;58.79;100265.75;8545169;33;20417;-73
2021/09/27 15:16:36;;;;;;;3.90;2.70;;;;;;;19.50;58.48;100278.94;8544292;33;20148;-74
2021/09/27 15:21:43;;;;;;;5.25;2.80;;;;;;;19.36;58.80;100274.31;8547017;33;20453;-74
2021/09/27 15:26:47;;;;;;;6.97;3.22;;;;;;;19.26;58.56;100271.00;8531051;33;20429;-74
2021/09/27 15:31:55;;;;;;;4.40;3.40;;;;;;;19.57;58.34;100276.34;8483792;33;20459;-74
2021/09/27 15:37:01;;;;;;;6.88;3.03;;;;;;;19.56;58.05;100267.34;8484751;33;20446;-74
2021/09/27 15:42:07;;;;;;;4.00;2.60;;;;;;;19.59;57.83;100275.13;8490196;33;20617;-74
2021/09/27 15:47:15;;;;;;;3.28;2.50;;;;;;;19.58;58.10;100268.00;8488008;33;21193;-74
2021/09/27 15:52:20;;;;;;;2.85;2.33;;;;;;;19.54;58.10;100274.81;8488770;33;20535;-74
2021/09/27 15:57:23;;;;;;;4.45;2.50;;;;;;;19.50;58.01;100270.78;8488212;33;20685;-74
2021/09/27 16:02:26;;;;;;;4.63;3.28;;;;;;;19.46;58.02;100283.91;8489000;33;20611;-74
2021/09/27 16:07:31;;;;;;;2.90;2.15;;;;;;;19.40;58.55;100289.25;8488284;33;20402;-73
2021/09/27 16:12:34;;;;;;;3.97;2.50;;;;;;;19.34;58.69;100292.72;8484031;33;20153;-73
2021/09/27 16:17:37;;;;;;;4.80;2.47;;;;;;;19.29;59.38;100297.88;8482165;33;20407;-74
2021/09/27 16:22:43;;;;;;;3.33;3.00;;;;;;;19.23;59.25;100303.00;8484191;33;20198;-74
2021/09/27 16:27:46;;;;;;;3.80;2.92;;;;;;;19.17;59.34;100306.47;8484352;33;20230;-75
2021/09/27 16:32:49;;;;;;;7.20;4.05;;;;;;;19.24;59.11;100301.97;8486600;33;20514;-73
2021/09/27 16:37:55;;;;;;;2.92;2.10;;;;;;;19.03;60.02;100301.81;8482863;33;20149;-75
2021/09/27 16:42:58;;;;;;;6.47;3.05;;;;;;;18.80;60.32;100313.53;8478421;33;20411;-74
2021/09/27 16:48:03;;;;;;;4.85;2.83;;;;;;;18.98;60.32;100317.84;8482271;33;20444;-73
2021/09/27 16:53:08;;;;;;;3.88;2.40;;;;;;;18.86;60.34;100327.44;8498148;33;20195;-74
2021/09/27 16:58:11;;;;;;;3.38;3.00;;;;;;;18.88;60.26;100334.41;8488702;33;20969;-73
2021/09/27 17:03:15;;;;;;;4.00;2.80;;;;;;;18.74;61.28;100340.59;8491879;33;20418;-74
2021/09/27 17:08:19;;;;;;;4.13;2.75;;;;;;;18.61;61.51;100343.03;8489384;33;20424;-74
2021/09/27 17:20:35;;;;;;;4.13;3.05;;;;;;;18.48;62.21;100349.88;8497781;33;20227;-74
2021/09/27 17:25:41;;;;;;;5.22;3.38;;;;;;;18.52;62.60;100353.13;8488976;33;20424;-74
2021/09/27 17:30:46;;;;;;;4.20;2.90;;;;;;;17.97;64.45;100364.84;8490687;33;20549;-74
2021/09/27 17:35:49;;;;;;;2.55;2.28;;;;;;;17.80;64.20;100361.28;8485601;33;20409;-74
2021/09/27 17:40:54;;;;;;;3.35;2.90;;;;;;;17.97;63.77;100363.00;8481971;33;20395;-74
2021/09/27 17:45:59;;;;;;;3.13;2.72;;;;;;;18.10;63.46;100370.59;8482159;33;20164;-74
2021/09/27 17:51:03;;;;;;;4.32;2.80;;;;;;;17.89;63.48;100368.41;8482363;33;20423;-75
2021/09/27 17:56:07;;;;;;;3.50;2.60;;;;;;;17.92;63.25;100377.06;8480043;33;22242;-76
2021/09/27 18:01:10;;;;;;;2.72;2.45;;;;;;;17.95;63.21;100380.44;8482882;33;20149;-75
2021/09/27 18:06:13;;;;;;;4.40;2.38;;;;;;;17.63;63.88;100374.88;8481541;33;20171;-75
2021/09/27 18:11:18;;;;;;;2.35;2.13;;;;;;;17.70;62.69;100386.75;8482307;33;20185;-75
2021/09/27 18:16:21;;;;;;;4.90;2.03;;;;;;;17.47;64.33;100410.22;8482685;33;20223;-75
2021/09/27 18:21:24;;;;;;;4.03;3.13;;;;;;;17.00;66.79;100406.19;8483295;33;20567;-74
2021/09/27 18:26:28;;;;;;;2.30;2.10;;;;;;;16.68;70.14;100412.38;8482223;33;20468;-75
2021/09/27 18:31:32;;;;;;;3.40;2.40;;;;;;;16.52;71.29;100420.44;8478069;33;20535;-75
2021/09/27 18:36:35;;;;;;;2.45;2.00;;;;;;;16.43;71.03;100440.34;8483113;33;21035;-75
2021/09/27 18:41:40;;;;;;;2.58;2.20;;;;;;;16.29;72.27;100447.22;8536400;33;20191;-76
2021/09/27 18:46:43;;;;;;;2.80;2.33;;;;;;;15.86;74.69;100460.63;8539214;33;20439;-75
2021/09/27 18:51:46;;;;;;;4.05;2.40;;;;;;;15.79;77.07;100473.06;8549704;33;20432;-75
2021/09/27 18:56:51;;;;;;;5.75;3.25;;;;;;;14.88;83.67;100483.94;8555169;33;20516;-76
2021/09/27 19:01:54;;;;;;;3.38;2.70;;;;;;;14.85;85.32;100503.16;8557055;33;20148;-76
2021/09/27 19:06:57;;;;;;;4.20;3.60;;;;;;;14.53;87.67;100506.28;8549102;33;20252;-75
2021/09/27 19:12:03;;;;;;;6.43;3.22;;;;;;;14.69;88.43;100517.31;8543526;33;20567;-75
2021/09/27 19:17:07;;;;;;;7.00;3.60;;;;;;;14.53;89.10;100517.09;8541920;33;21569;-75
2021/09/27 19:22:09;;;;;;;7.40;4.07;;;;;;;14.64;89.41;100530.41;8544352;33;20434;-75
2021/09/27 19:27:14;;;;;;;11.35;4.20;;;;;;;14.69;90.20;100579.50;8530915;33;20428;-74
2021/09/27 19:32:17;;;;;;;2.28;1.70;;;;;;;12.95;88.32;100570.22;8507952;33;20432;-74
2021/09/27 19:37:22;;;;;;;1.77;1.45;;;;;;;12.15;90.61;100608.53;8509963;33;20376;-73
2021/09/27 19:42:26;;;;;;;3.08;1.52;;;;;;;12.57;89.69;100630.16;8509465;33;20428;-74
2021/09/27 19:47:29;;;;;;;1.45;1.35;;;;;;;12.16;90.75;100618.31;8510323;33;20422;-74
2021/09/27 19:52:32;;;;;;;3.30;1.52;;;;;;;12.38;90.44;100639.78;8494567;33;20424;-74
2021/09/27 19:57:37;;;;;;;3.50;1.92;;;;;;;12.56;89.54;100640.09;8487832;33;20422;-73
2021/09/27 20:02:41;;;;;;;4.60;2.10;;;;;;;12.33;89.90;100666.25;8506184;33;20867;-74
2021/09/27 20:07:45;;;;;;;3.75;1.80;;;;;;;12.27;90.83;100682.91;8513063;33;20458;-75
2021/09/27 20:12:51;;;;;;;2.88;1.90;;;;;;;12.47;89.64;100678.56;8519277;33;20519;-74
2021/09/27 20:17:54;;;;;;;2.00;1.80;;;;;;;12.60;89.28;100673.00;8491351;33;20348;-75
2021/09/27 20:22:58;;;;;;;3.38;1.83;;;;;;;12.37;89.20;100685.72;8492353;33;20456;-75
2021/09/27 20:28:04;;;;;;;4.53;2.05;;;;;;;12.38;89.46;100690.13;8502969;33;20424;-75
2021/09/27 20:33:08;;;;;;;4.13;2.20;;;;;;;12.17;90.86;100707.03;8505853;33;21220;-75
2021/09/27 20:38:15;;;;;;;2.38;2.00;;;;;;;12.19;90.10;100716.84;8505325;33;20182;-74
2021/09/27 20:43:20;;;;;;;3.53;1.83;;;;;;;12.31;90.16;100715.84;8501624;33;20148;-75
2021/09/27 20:48:24;;;;;;;3.08;2.30;;;;;;;12.17;90.59;100744.75;8504235;33;20176;-75
2021/09/27 20:53:29;;;;;;;3.47;2.13;;;;;;;12.50;90.18;100742.97;8504961;33;20441;-75
2021/09/27 20:58:35;;;;;;;5.65;3.05;;;;;;;12.46;90.00;100736.13;8509527;33;20508;-74
2021/09/27 21:03:39;;;;;;;3.13;2.30;;;;;;;12.37;89.38;100747.69;8478971;33;20456;-74
2021/09/27 21:08:42;;;;;;;4.78;3.88;;;;;;;12.34;90.08;100762.28;8481980;33;20159;-74
2021/09/27 21:13:46;;;;;;;4.43;2.67;;;;;;;12.17;90.39;100770.81;8478937;33;20315;-74
2021/09/27 21:18:50;;;;;;;5.47;2.70;;;;;;;12.38;89.92;100782.56;8483175;33;20441;-74
2021/09/27 21:23:53;;;;;;;6.43;3.13;;;;;;;12.43;90.11;100787.59;8484240;33;20203;-74
2021/09/27 21:28:57;;;;;;;4.38;3.60;;;;;;;12.12;90.77;100802.66;8484389;33;20137;-73
2021/09/27 21:34:00;;;;;;;5.28;3.80;;;;;;;12.20;90.80;100807.44;8483952;33;20425;-74
2021/09/27 21:39:04;;;;;;;6.78;4.05;;;;;;;12.17;90.91;100809.38;8487737;33;20486;-73
2021/09/27 21:44:09;;;;;;;4.90;3.78;;;;;;;12.31;90.37;100810.13;8493864;33;20196;-73
2021/09/27 21:49:12;;;;;;;7.28;4.43;;;;;;;12.36;89.68;100826.78;8484138;33;20160;-73
2021/09/27 21:54:15;;;;;;;6.03;4.43;;;;;;;12.27;89.15;100830.19;8483344;33;20591;-73
2021/09/27 21:59:20;;;;;;;6.78;4.88;;;;;;;12.16;89.36;100831.91;8483470;33;20141;-73
2021/09/27 22:04:23;;;;;;;8.00;4.63;;;;;;;12.15;88.51;100851.75;8482021;33;20133;-73
2021/09/27 22:09:28;;;;;;;7.20;4.75;;;;;;;12.02;88.99;100858.25;8486523;33;20248;-73
2021/09/27 22:14:31;;;;;;;9.63;5.65;;;;;;;12.14;88.31;100857.25;8491373;33;21080;-72
2021/09/27 22:19:34;;;;;;;8.93;5.50;;;;;;;11.85;89.55;100863.13;8495196;33;21247;-73
2021/09/27 22:24:39;;;;;;;12.10;7.00;;;;;;;12.10;88.42;100864.75;8503578;33;20432;-73
2021/09/27 22:29:42;;;;;;;9.38;6.65;;;;;;;12.06;88.26;100879.41;8493128;33;20571;-73
2021/09/27 22:34:45;;;;;;;11.38;7.28;;;;;;;11.66;90.25;100887.94;8497211;33;20446;-73
2021/09/27 22:39:50;;;;;;;10.63;7.10;;;;;;;11.77;89.22;100900.56;8504034;33;20488;-73
2021/09/27 22:44:53;;;;;;;10.95;6.65;;;;;;;11.95;88.83;100901.78;8503672;33;20171;-73
2021/09/27 22:49:56;;;;;;;11.27;6.70;;;;;;;11.78;88.79;100906.81;8503094;33;20194;-73
2021/09/27 22:55:00;;;;;;;10.35;6.85;;;;;;;11.70;88.74;100910.94;8501869;33;21022;-73
2021/09/27 23:00:06;;;;;;;13.20;7.32;;;;;;;11.63;89.01;100919.63;8498120;33;21054;-73
2021/09/27 23:05:12;;;;;;;11.27;7.13;;;;;;;11.90;87.98;100911.22;8487961;33;21287;-73
2021/09/27 23:10:17;;;;;;;14.55;7.57;;;;;;;11.84;87.54;100909.00;8487030;33;20133;-73
2021/09/27 23:15:22;;;;;;;16.05;7.95;;;;;;;11.60;88.58;100915.34;8495975;33;20265;-73
2021/09/27 23:20:27;;;;;;;10.18;6.68;;;;;;;11.72;87.98;100935.06;8501709;33;20946;-73
2021/09/27 23:25:31;;;;;;;15.88;7.57;;;;;;;11.70;87.53;100945.91;8501759;33;20580;-73
2021/09/27 23:30:34;;;;;;;18.13;8.18;;;;;;;11.73;87.23;100943.00;8506748;33;20419;-73
2021/09/27 23:35:37;;;;;;;13.32;7.43;;;;;;;11.58;87.73;100948.72;8506228;33;20924;-74
2021/09/27 23:40:42;;;;;;;14.70;7.68;;;;;;;11.66;87.68;100952.53;8506919;33;20430;-73
2021/09/27 23:45:45;;;;;;;18.02;8.75;;;;;;;11.65;87.81;100966.94;8506682;33;20157;-73
2021/09/27 23:50:49;;;;;;;15.82;8.90;;;;;;;11.64;88.19;100972.47;8506112;33;20457;-73